Terminal Aerodrome Forecast
Issued by NWS Duluth, MN

Home | Current Version | Previous Version | Text Only | Print | Product List | Glossary On
Versions: 1 2 3 4 5 6 7 8 9 10 11 12 13 14 15 16 17 18 19 20 21 22
000
FTUS43 KDLH 032342
TAFDLH
TAF
KDLH 032342Z 0400/0424 34006KT 4SM FU FEW070
     FM040200 34003KT 4SM FU FEW070
      TEMPO 0408/0411 1SM BR FEW005
     FM041200 08007KT 4SM FU FEW050
     FM041800 10010KT P6SM FEW050=

USA.gov is the U.S. government's official web portal to all federal, state and local government web resources and services.